createdAt,value
2018-07-26T00:00:36.658Z,24.9
2018-07-26T00:01:27.567Z,24.9
2018-07-26T00:02:17.888Z,24.9
2018-07-26T00:03:07.725Z,24.9
2018-07-26T00:03:56.510Z,24.9
2018-07-26T00:04:46.420Z,24.9
2018-07-26T00:05:37.923Z,24.9
2018-07-26T00:06:27.191Z,24.9
2018-07-26T00:07:16.605Z,24.9
2018-07-26T00:08:07.414Z,24.9
2018-07-26T00:08:57.130Z,24.9
2018-07-26T00:09:47.496Z,24.9
2018-07-26T00:10:37.979Z,24.9
2018-07-26T00:11:27.916Z,24.9
2018-07-26T00:12:16.569Z,24.9
2018-07-26T00:13:07.014Z,24.9
2018-07-26T00:13:57.190Z,24.9
2018-07-26T00:14:47.761Z,24.9
2018-07-26T00:15:38.158Z,24.9
2018-07-26T00:16:28.207Z,24.9
2018-07-26T00:17:18.540Z,24.9
2018-07-26T00:18:08.362Z,24.9
2018-07-26T00:18:58.701Z,24.9
2018-07-26T00:19:47.689Z,24.9
2018-07-26T00:20:38.067Z,24.9
2018-07-26T00:21:26.984Z,24.9
2018-07-26T00:22:18.473Z,24.9
2018-07-26T00:23:07.672Z,24.9
2018-07-26T00:23:57.674Z,24.9
2018-07-26T00:24:48.599Z,24.9
2018-07-26T00:25:38.572Z,24.9
2018-07-26T00:26:29.592Z,24.9
2018-07-26T00:27:18.759Z,24.9
2018-07-26T00:28:08.544Z,24.9
2018-07-26T00:28:59.110Z,24.9
2018-07-26T00:29:49.491Z,24.9
2018-07-26T00:30:39.574Z,24.9
2018-07-26T00:31:29.351Z,24.9
2018-07-26T00:32:19.960Z,24.9
2018-07-26T00:33:08.872Z,24.9
2018-07-26T00:33:58.996Z,24.9
2018-07-26T00:34:49.869Z,24.9
2018-07-26T00:35:39.877Z,24.9
2018-07-26T00:36:29.970Z,24.8
2018-07-26T00:37:20.088Z,24.9
2018-07-26T00:38:09.882Z,24.8
2018-07-26T00:39:00.268Z,24.8
2018-07-26T00:39:50.006Z,24.9
2018-07-26T00:40:40.907Z,24.8
2018-07-26T00:41:30.098Z,24.8
2018-07-26T00:42:20.450Z,24.8
2018-07-26T00:43:09.180Z,24.9
2018-07-26T00:44:00.304Z,24.8
2018-07-26T00:44:49.834Z,24.9
2018-07-26T00:45:41.001Z,24.9
2018-07-26T00:46:31.053Z,24.8
2018-07-26T00:47:21.157Z,24.8
2018-07-26T00:48:10.932Z,24.8
2018-07-26T00:49:02.045Z,24.8
2018-07-26T00:49:50.497Z,24.9
2018-07-26T00:50:40.876Z,24.8
2018-07-26T00:51:30.664Z,24.8
2018-07-26T00:52:20.967Z,24.8
2018-07-26T00:53:10.799Z,24.9
2018-07-26T00:54:00.301Z,24.8
2018-07-26T00:54:51.697Z,24.8
2018-07-26T00:55:41.194Z,24.8
2018-07-26T00:56:31.810Z,24.8
2018-07-26T00:57:21.056Z,24.8
2018-07-26T00:58:11.608Z,24.8
2018-07-26T00:59:02.045Z,24.8
2018-07-26T00:59:51.788Z,24.8
2018-07-26T01:00:41.930Z,24.8
2018-07-26T01:01:31.318Z,24.8
2018-07-26T01:02:21.187Z,24.8
2018-07-26T01:03:11.785Z,24.8
2018-07-26T01:04:00.739Z,24.8
2018-07-26T01:04:52.473Z,24.8
2018-07-26T01:05:41.494Z,24.8
2018-07-26T01:06:32.606Z,24.8
2018-07-26T01:07:22.331Z,24.8
2018-07-26T01:08:13.023Z,24.8
2018-07-26T01:09:01.645Z,24.8
2018-07-26T01:09:52.536Z,24.8
2018-07-26T01:10:42.352Z,24.8
2018-07-26T01:11:32.748Z,24.8
2018-07-26T01:12:22.802Z,24.8
2018-07-26T01:13:11.778Z,24.8
2018-07-26T01:14:02.126Z,24.8
2018-07-26T01:14:52.980Z,24.8
2018-07-26T01:15:42.305Z,24.8
2018-07-26T01:16:31.949Z,24.8
2018-07-26T01:17:23.402Z,24.8
2018-07-26T01:18:12.632Z,24.8
2018-07-26T01:19:03.514Z,24.8
2018-07-26T01:19:53.877Z,24.8
2018-07-26T01:20:43.216Z,24.8
2018-07-26T01:21:33.775Z,24.8
2018-07-26T01:22:23.802Z,24.8
2018-07-26T01:23:12.457Z,24.8
2018-07-26T01:24:03.169Z,24.8
2018-07-26T01:24:52.398Z,24.8
2018-07-26T01:25:44.070Z,24.8
2018-07-26T01:26:32.735Z,24.8
2018-07-26T01:27:24.252Z,24.8
2018-07-26T01:28:14.005Z,24.8
2018-07-26T01:29:03.242Z,24.8
2018-07-26T01:29:53.880Z,24.8
2018-07-26T01:30:43.672Z,24.8
2018-07-26T01:31:33.935Z,24.8
2018-07-26T01:32:22.948Z,24.8
2018-07-26T01:33:13.599Z,24.8
2018-07-26T01:34:03.401Z,24.8
2018-07-26T01:34:53.949Z,24.8
2018-07-26T01:35:44.351Z,24.8
2018-07-26T01:36:33.826Z,24.8
2018-07-26T01:37:24.887Z,24.8
2018-07-26T01:38:14.741Z,24.8
2018-07-26T01:39:04.482Z,24.8
2018-07-26T01:39:53.503Z,24.8
2018-07-26T01:40:44.321Z,24.8
2018-07-26T01:41:34.131Z,24.8
2018-07-26T01:42:24.382Z,24.8
2018-07-26T01:43:14.873Z,24.8
2018-07-26T01:44:05.131Z,24.8
2018-07-26T01:44:55.100Z,24.8
2018-07-26T01:45:45.397Z,24.8
2018-07-26T01:46:34.848Z,24.8
2018-07-26T01:47:25.585Z,24.8
2018-07-26T01:48:14.492Z,24.8
2018-07-26T01:49:05.916Z,24.8
2018-07-26T01:49:55.333Z,24.8
2018-07-26T01:50:44.910Z,24.8
2018-07-26T01:51:35.545Z,24.8
2018-07-26T01:52:25.755Z,24.8
2018-07-26T01:53:15.921Z,24.8
2018-07-26T01:54:05.141Z,24.8
2018-07-26T01:54:55.253Z,24.8
2018-07-26T01:55:45.756Z,24.8
2018-07-26T01:56:36.137Z,24.8
2018-07-26T01:57:26.685Z,24.8
2018-07-26T01:58:15.972Z,24.8
2018-07-26T01:59:06.340Z,24.8
2018-07-26T01:59:56.597Z,24.8
2018-07-26T02:00:46.734Z,24.8
2018-07-26T02:01:37.394Z,24.8
2018-07-26T02:02:26.533Z,24.8
2018-07-26T02:03:16.120Z,24.8
2018-07-26T02:04:06.715Z,24.8
2018-07-26T02:04:57.015Z,24.8
2018-07-26T02:05:46.856Z,24.8
2018-07-26T02:06:36.404Z,24.8
2018-07-26T02:07:26.488Z,24.8
2018-07-26T02:08:17.343Z,24.8
2018-07-26T02:09:07.167Z,24.8
2018-07-26T02:09:56.691Z,24.8
2018-07-26T02:10:47.002Z,24.8
2018-07-26T02:11:36.636Z,24.8
2018-07-26T02:12:26.774Z,24.8
2018-07-26T02:13:17.236Z,24.8
2018-07-26T02:14:07.276Z,24.8
2018-07-26T02:14:57.347Z,24.8
2018-07-26T02:15:47.427Z,24.8
2018-07-26T02:16:37.736Z,24.8
2018-07-26T02:17:27.523Z,24.8
2018-07-26T02:18:17.864Z,24.8
2018-07-26T02:19:08.258Z,24.8
2018-07-26T02:19:57.941Z,24.8
2018-07-26T02:20:48.352Z,24.8
2018-07-26T02:21:36.697Z,24.8
2018-07-26T02:22:27.272Z,24.8
2018-07-26T02:23:17.680Z,24.8
2018-07-26T02:24:08.537Z,24.8
2018-07-26T02:24:58.457Z,24.8
2018-07-26T02:25:47.885Z,24.7
2018-07-26T02:26:38.861Z,24.8
2018-07-26T02:27:28.517Z,24.8
2018-07-26T02:28:17.577Z,24.8
2018-07-26T02:29:08.740Z,24.7
2018-07-26T02:29:58.212Z,24.8
2018-07-26T02:30:47.539Z,24.8
2018-07-26T02:31:38.109Z,24.7
2018-07-26T02:32:27.785Z,24.7
2018-07-26T02:33:18.287Z,24.8
2018-07-26T02:34:08.328Z,24.8
2018-07-26T02:34:58.180Z,24.8
2018-07-26T02:35:48.478Z,24.7
2018-07-26T02:36:38.329Z,24.8
2018-07-26T02:37:28.824Z,24.7
2018-07-26T02:38:18.887Z,24.7
2018-07-26T02:39:08.983Z,24.7
2018-07-26T02:39:58.462Z,24.7
2018-07-26T02:40:50.169Z,24.7
2018-07-26T02:41:39.545Z,24.7
2018-07-26T02:42:29.383Z,24.7
2018-07-26T02:43:19.547Z,24.7
2018-07-26T02:44:08.462Z,24.7
2018-07-26T02:45:00.164Z,24.7
2018-07-26T02:45:49.987Z,24.7
2018-07-26T02:46:39.970Z,24.7
2018-07-26T02:47:30.611Z,24.7
2018-07-26T02:48:19.892Z,24.7
2018-07-26T02:49:09.971Z,24.7
2018-07-26T02:49:59.571Z,24.7
2018-07-26T02:50:50.385Z,24.7
2018-07-26T02:51:40.184Z,24.7
2018-07-26T02:52:30.505Z,24.7
2018-07-26T02:53:20.607Z,24.7
2018-07-26T02:54:09.993Z,24.7
2018-07-26T02:55:00.985Z,24.7
2018-07-26T02:55:50.462Z,24.7
2018-07-26T02:56:40.778Z,24.6
2018-07-26T02:57:30.001Z,24.7
2018-07-26T02:58:19.222Z,24.7
2018-07-26T02:59:10.504Z,24.6
2018-07-26T03:00:01.446Z,24.7
2018-07-26T03:00:51.395Z,24.7
2018-07-26T03:01:40.350Z,24.7
2018-07-26T03:02:31.275Z,24.6
2018-07-26T03:03:21.300Z,24.7
2018-07-26T03:04:11.101Z,24.7
2018-07-26T03:05:01.377Z,24.6
2018-07-26T03:05:51.328Z,24.6
2018-07-26T03:06:41.016Z,24.6
2018-07-26T03:07:31.620Z,24.6
2018-07-26T03:08:21.110Z,24.6
2018-07-26T03:09:10.625Z,24.6
2018-07-26T03:10:02.437Z,24.7
2018-07-26T03:10:51.909Z,24.6
2018-07-26T03:11:41.359Z,24.6
2018-07-26T03:12:31.407Z,24.6
2018-07-26T03:13:21.809Z,24.6
2018-07-26T03:14:12.137Z,24.6
2018-07-26T03:15:02.714Z,24.6
2018-07-26T03:15:52.360Z,24.6
2018-07-26T03:16:42.326Z,24.6
2018-07-26T03:17:31.859Z,24.6
2018-07-26T03:18:22.267Z,24.6
2018-07-26T03:19:11.148Z,24.6
2018-07-26T03:20:02.044Z,24.6
2018-07-26T03:20:52.869Z,24.6
2018-07-26T03:21:42.538Z,24.6
2018-07-26T03:22:32.296Z,24.6
2018-07-26T03:23:22.578Z,24.6
2018-07-26T03:24:12.943Z,24.6
2018-07-26T03:25:02.238Z,24.6
2018-07-26T03:25:52.378Z,24.6
2018-07-26T03:26:42.547Z,24.6
2018-07-26T03:27:33.225Z,24.6
2018-07-26T03:28:23.197Z,24.6
2018-07-26T03:29:12.973Z,24.6
2018-07-26T03:30:03.115Z,24.6
2018-07-26T03:30:52.933Z,24.6
2018-07-26T03:31:42.399Z,24.6
2018-07-26T03:32:31.814Z,24.6
2018-07-26T03:33:23.570Z,24.6
2018-07-26T03:34:12.805Z,24.6
2018-07-26T03:35:03.705Z,24.6
2018-07-26T03:35:52.930Z,24.6
2018-07-26T03:36:43.310Z,24.6
2018-07-26T03:37:33.832Z,24.6
2018-07-26T03:38:24.245Z,24.6
2018-07-26T03:39:13.704Z,24.6
2018-07-26T03:40:03.799Z,24.6
2018-07-26T03:40:52.171Z,24.6
2018-07-26T03:41:44.192Z,24.6
2018-07-26T03:42:34.615Z,24.6
2018-07-26T03:43:24.985Z,24.6
2018-07-26T03:44:14.684Z,24.6
2018-07-26T03:45:04.479Z,24.6
2018-07-26T03:45:54.756Z,24.6
2018-07-26T03:46:44.541Z,24.5
2018-07-26T03:47:34.608Z,24.6
2018-07-26T03:48:23.810Z,24.5
2018-07-26T03:49:13.892Z,24.5
2018-07-26T03:50:03.941Z,24.6
2018-07-26T03:50:54.686Z,24.5
2018-07-26T03:51:44.991Z,24.5
2018-07-26T03:52:35.071Z,24.6
2018-07-26T03:53:24.276Z,24.5
2018-07-26T03:54:15.161Z,24.5
2018-07-26T03:55:05.230Z,24.5
2018-07-26T03:55:55.392Z,24.5
2018-07-26T03:56:44.826Z,24.5
2018-07-26T03:57:35.097Z,24.5
2018-07-26T03:58:25.799Z,24.5
2018-07-26T03:59:15.581Z,24.5
2018-07-26T04:00:04.226Z,24.5
2018-07-26T04:00:56.007Z,24.5
2018-07-26T04:01:45.734Z,24.6
2018-07-26T04:02:34.984Z,24.5
2018-07-26T04:03:26.651Z,24.4
2018-07-26T04:04:14.826Z,24.5
2018-07-26T04:05:05.768Z,24.5
2018-07-26T04:05:55.775Z,24.4
2018-07-26T04:06:46.783Z,24.4
2018-07-26T04:07:35.355Z,24.4
2018-07-26T04:08:25.687Z,24.4
2018-07-26T04:09:14.912Z,24.5
2018-07-26T04:10:06.400Z,24.4
2018-07-26T04:10:55.422Z,24.4
2018-07-26T04:11:47.029Z,24.4
2018-07-26T04:12:36.239Z,24.4
2018-07-26T04:13:26.316Z,24.4
2018-07-26T04:14:17.387Z,24.4
2018-07-26T04:15:06.450Z,24.4
2018-07-26T04:15:57.293Z,24.4
2018-07-26T04:16:46.565Z,24.5
2018-07-26T04:17:36.627Z,24.4
2018-07-26T04:18:26.719Z,24.4
2018-07-26T04:19:17.556Z,24.4
2018-07-26T04:20:08.472Z,24.4
2018-07-26T04:20:57.769Z,24.4
2018-07-26T04:21:46.951Z,24.4
2018-07-26T04:22:37.565Z,24.4
2018-07-26T04:23:27.882Z,24.4
2018-07-26T04:24:17.407Z,24.4
2018-07-26T04:25:07.274Z,24.4
2018-07-26T04:25:57.468Z,24.4
2018-07-26T04:26:47.104Z,24.4
2018-07-26T04:27:37.476Z,24.4
2018-07-26T04:28:26.993Z,24.4
2018-07-26T04:29:18.163Z,24.4
2018-07-26T04:30:07.071Z,24.4
2018-07-26T04:30:56.294Z,24.4
2018-07-26T04:31:48.614Z,24.4
2018-07-26T04:32:37.836Z,24.4
2018-07-26T04:33:27.672Z,24.4
2018-07-26T04:34:17.977Z,24.4
2018-07-26T04:35:08.007Z,24.4
2018-07-26T04:35:57.774Z,24.4
2018-07-26T04:36:47.105Z,24.4
2018-07-26T04:37:37.860Z,24.4
2018-07-26T04:38:28.773Z,24.4
2018-07-26T04:39:17.883Z,24.4
2018-07-26T04:40:08.907Z,24.4
2018-07-26T04:40:57.882Z,24.4
2018-07-26T04:41:48.481Z,24.4
2018-07-26T04:42:38.291Z,24.4
2018-07-26T04:43:28.406Z,24.4
2018-07-26T04:44:18.705Z,24.4
2018-07-26T04:45:08.523Z,24.4
2018-07-26T04:45:58.596Z,24.4
2018-07-26T04:46:49.176Z,24.4
2018-07-26T04:47:39.309Z,24.4
2018-07-26T04:48:29.588Z,24.4
2018-07-26T04:49:19.340Z,24.4
2018-07-26T04:50:09.923Z,24.4
2018-07-26T04:50:59.512Z,24.4
2018-07-26T04:51:49.828Z,24.4
2018-07-26T04:52:39.711Z,24.4
2018-07-26T04:53:29.336Z,24.4
2018-07-26T04:54:19.833Z,24.4
2018-07-26T04:55:10.058Z,24.4
2018-07-26T04:55:59.592Z,24.4
2018-07-26T04:56:49.948Z,24.4
2018-07-26T04:57:39.783Z,24.4
2018-07-26T04:58:30.061Z,24.4
2018-07-26T04:59:20.352Z,24.4
2018-07-26T05:00:09.055Z,24.4
2018-07-26T05:00:59.985Z,24.4
2018-07-26T05:01:49.471Z,24.4
2018-07-26T05:02:40.349Z,24.4
2018-07-26T05:03:30.180Z,24.4
2018-07-26T05:04:20.155Z,24.4
2018-07-26T05:05:10.902Z,24.5
2018-07-26T05:06:00.050Z,24.5
2018-07-26T05:06:50.219Z,24.5
2018-07-26T05:07:39.462Z,24.4
2018-07-26T05:08:30.878Z,24.5
2018-07-26T05:09:20.379Z,24.5
2018-07-26T05:10:10.991Z,24.4
2018-07-26T05:11:01.015Z,24.4
2018-07-26T05:11:51.407Z,24.4
2018-07-26T05:12:41.499Z,24.4
2018-07-26T05:13:31.225Z,24.5
2018-07-26T05:14:20.397Z,24.5
2018-07-26T05:15:25.277Z,24.5
2018-07-26T05:16:01.426Z,24.4
2018-07-26T05:16:50.620Z,24.5
2018-07-26T05:17:41.516Z,24.4
2018-07-26T05:18:32.081Z,24.5
2018-07-26T05:19:22.810Z,24.5
2018-07-26T05:20:12.004Z,24.5
2018-07-26T05:21:01.494Z,24.4
2018-07-26T05:21:52.108Z,24.5
2018-07-26T05:22:41.343Z,24.5
2018-07-26T05:23:32.163Z,24.5
2018-07-26T05:24:21.443Z,24.5
2018-07-26T05:25:12.650Z,24.5
2018-07-26T05:26:02.658Z,24.5
2018-07-26T05:26:52.188Z,24.5
2018-07-26T05:27:43.247Z,24.5
2018-07-26T05:28:32.297Z,24.5
2018-07-26T05:29:22.093Z,24.6
2018-07-26T05:30:12.746Z,24.5
2018-07-26T05:31:02.473Z,24.5
2018-07-26T05:31:52.636Z,24.5
2018-07-26T05:32:42.360Z,24.5
2018-07-26T05:33:32.474Z,24.5
2018-07-26T05:34:23.178Z,24.5
2018-07-26T05:35:13.147Z,24.6
2018-07-26T05:36:02.379Z,24.5
2018-07-26T05:36:52.701Z,24.6
2018-07-26T05:37:43.081Z,24.6
2018-07-26T05:38:33.143Z,24.6
2018-07-26T05:39:22.900Z,24.6
2018-07-26T05:40:13.746Z,24.6
2018-07-26T05:41:03.872Z,24.6
2018-07-26T05:41:53.142Z,24.6
2018-07-26T05:42:43.172Z,24.6
2018-07-26T05:43:32.700Z,24.6
2018-07-26T05:44:23.588Z,24.6
2018-07-26T05:45:13.158Z,24.6
2018-07-26T05:46:03.908Z,24.6
2018-07-26T05:46:53.812Z,24.6
2018-07-26T05:47:43.851Z,24.7
2018-07-26T05:48:33.311Z,24.6
2018-07-26T05:49:23.959Z,24.6
2018-07-26T05:50:14.292Z,24.6
2018-07-26T05:51:03.882Z,24.6
2018-07-26T05:51:53.925Z,24.6
2018-07-26T05:52:44.610Z,24.6
2018-07-26T05:53:34.581Z,24.7
2018-07-26T05:54:24.729Z,24.6
2018-07-26T05:55:14.807Z,24.7
2018-07-26T05:56:03.186Z,24.7
2018-07-26T05:56:54.295Z,24.7
2018-07-26T05:57:44.142Z,24.7
2018-07-26T05:58:34.699Z,24.7
2018-07-26T05:59:24.740Z,24.7
2018-07-26T06:00:16.604Z,24.7
2018-07-26T06:01:05.340Z,24.6
2018-07-26T06:01:54.557Z,24.7
2018-07-26T06:02:45.263Z,24.7
2018-07-26T06:03:34.981Z,24.6
2018-07-26T06:04:25.669Z,24.6
2018-07-26T06:05:15.434Z,24.7
2018-07-26T06:06:05.191Z,24.7
2018-07-26T06:06:55.213Z,24.7
2018-07-26T06:07:45.551Z,24.7
2018-07-26T06:08:35.678Z,24.7
2018-07-26T06:09:26.009Z,24.7
2018-07-26T06:10:16.042Z,24.7
2018-07-26T06:11:06.087Z,24.7
2018-07-26T06:11:55.856Z,24.7
2018-07-26T06:12:45.406Z,24.8
2018-07-26T06:13:36.266Z,24.8
2018-07-26T06:14:25.819Z,24.7
2018-07-26T06:15:16.425Z,24.7
2018-07-26T06:16:06.343Z,24.8
2018-07-26T06:16:56.101Z,24.8
2018-07-26T06:17:46.420Z,24.8
2018-07-26T06:18:35.664Z,24.8
2018-07-26T06:19:26.056Z,24.8
2018-07-26T06:20:15.929Z,24.8
2018-07-26T06:21:06.747Z,24.8
2018-07-26T06:21:56.185Z,24.8
2018-07-26T06:22:45.529Z,24.8
2018-07-26T06:23:36.911Z,24.8
2018-07-26T06:24:27.013Z,24.8
2018-07-26T06:25:16.837Z,24.8
2018-07-26T06:26:06.276Z,24.8
2018-07-26T06:26:56.493Z,24.8
2018-07-26T06:27:46.509Z,24.8
2018-07-26T06:28:36.670Z,24.8
2018-07-26T06:29:27.553Z,24.8
2018-07-26T06:30:17.622Z,24.8
2018-07-26T06:31:07.672Z,24.8
2018-07-26T06:31:56.965Z,24.8
2018-07-26T06:32:46.960Z,24.8
2018-07-26T06:33:39.373Z,24.8
2018-07-26T06:34:27.686Z,24.8
2018-07-26T06:35:17.226Z,24.8
2018-07-26T06:36:07.571Z,24.8
2018-07-26T06:36:57.091Z,24.8
2018-07-26T06:37:48.209Z,24.8
2018-07-26T06:38:37.456Z,24.9
2018-07-26T06:39:28.189Z,24.9
2018-07-26T06:40:17.597Z,24.8
2018-07-26T06:41:08.235Z,24.9
2018-07-26T06:41:57.725Z,24.9
2018-07-26T06:42:47.209Z,24.8
2018-07-26T06:43:37.854Z,24.9
2018-07-26T06:44:28.190Z,24.9
2018-07-26T06:45:18.111Z,24.9
2018-07-26T06:46:08.391Z,24.9
2018-07-26T06:46:57.672Z,24.9
2018-07-26T06:47:48.747Z,24.9
2018-07-26T06:48:38.567Z,24.9
2018-07-26T06:49:27.988Z,24.9
2018-07-26T06:50:18.681Z,24.9
2018-07-26T06:51:08.258Z,24.9
2018-07-26T06:51:58.542Z,24.9
2018-07-26T06:52:48.229Z,24.9
2018-07-26T06:53:39.362Z,24.9
2018-07-26T06:54:28.360Z,24.9
2018-07-26T06:55:18.697Z,24.9
2018-07-26T06:56:09.052Z,24.9
2018-07-26T06:56:59.417Z,24.9
2018-07-26T06:57:48.152Z,24.9
2018-07-26T06:58:39.766Z,24.9
2018-07-26T06:59:29.353Z,24.9
2018-07-26T07:00:19.602Z,24.9
2018-07-26T07:01:08.984Z,24.9
2018-07-26T07:02:00.015Z,24.9
2018-07-26T07:02:50.104Z,24.9
2018-07-26T07:03:39.895Z,24.9
2018-07-26T07:04:29.995Z,24.9
2018-07-26T07:05:20.063Z,24.9
2018-07-26T07:06:09.779Z,24.9
2018-07-26T07:06:59.858Z,24.9
2018-07-26T07:07:49.650Z,25
2018-07-26T07:08:40.227Z,24.9
2018-07-26T07:09:29.499Z,24.9
2018-07-26T07:10:19.744Z,24.9
2018-07-26T07:11:09.179Z,25
2018-07-26T07:11:59.182Z,24.9
2018-07-26T07:12:50.159Z,24.9
2018-07-26T07:13:40.768Z,24.9
2018-07-26T07:14:30.946Z,25
2018-07-26T07:15:19.804Z,25
2018-07-26T07:16:10.663Z,25
2018-07-26T07:17:01.233Z,25
2018-07-26T07:17:50.689Z,25
2018-07-26T07:18:39.478Z,25
2018-07-26T07:19:30.054Z,25
2018-07-26T07:20:20.403Z,25
2018-07-26T07:21:10.762Z,25
2018-07-26T07:22:01.594Z,25
2018-07-26T07:22:51.660Z,25
2018-07-26T07:23:40.077Z,25
2018-07-26T07:24:31.258Z,25
2018-07-26T07:25:20.764Z,25
2018-07-26T07:26:12.291Z,25.1
2018-07-26T07:27:02.050Z,25
2018-07-26T07:27:50.962Z,25
2018-07-26T07:28:41.389Z,25.1
2018-07-26T07:29:32.009Z,25
2018-07-26T07:30:21.138Z,25
2018-07-26T07:31:11.736Z,25.1
2018-07-26T07:32:01.690Z,25.1
2018-07-26T07:32:51.408Z,25.1
2018-07-26T07:33:41.990Z,25.1
2018-07-26T07:34:32.011Z,25.1
2018-07-26T07:35:21.093Z,25.1
2018-07-26T07:36:09.769Z,25
2018-07-26T07:37:00.505Z,25.1
2018-07-26T07:37:52.600Z,25.1
2018-07-26T07:38:42.078Z,25.1
2018-07-26T07:39:32.437Z,25.1
2018-07-26T07:40:22.809Z,25.1
2018-07-26T07:41:12.705Z,25.1
2018-07-26T07:42:02.535Z,25.1
2018-07-26T07:42:52.361Z,25.1
2018-07-26T07:43:41.584Z,25.1
2018-07-26T07:44:33.014Z,25.1
2018-07-26T07:45:22.611Z,25.1
2018-07-26T07:46:12.398Z,25.1
2018-07-26T07:47:03.054Z,25.1
2018-07-26T07:47:53.619Z,25.1
2018-07-26T07:48:42.337Z,25.1
2018-07-26T07:49:33.260Z,25.1
2018-07-26T07:50:23.597Z,25.1
2018-07-26T07:51:13.679Z,25.1
2018-07-26T07:52:03.135Z,25.1
2018-07-26T07:52:52.907Z,25.1
2018-07-26T07:53:44.081Z,25.1
2018-07-26T07:54:33.589Z,25.1
2018-07-26T07:55:23.421Z,25.1
2018-07-26T07:56:13.431Z,25.1
2018-07-26T07:57:04.138Z,25.1
2018-07-26T07:57:53.116Z,25.1
2018-07-26T07:58:43.402Z,25.1
2018-07-26T07:59:34.902Z,25.1
2018-07-26T08:00:22.947Z,25.1
2018-07-26T08:01:14.344Z,25.1
2018-07-26T08:02:03.583Z,25.1
2018-07-26T08:02:54.305Z,25.1
2018-07-26T08:03:43.435Z,25.1
2018-07-26T08:04:33.759Z,25.1
2018-07-26T08:05:25.177Z,25.1
2018-07-26T08:06:14.541Z,25.1
2018-07-26T08:07:04.268Z,25.1
2018-07-26T08:07:54.299Z,25.1
2018-07-26T08:08:44.378Z,25.1
2018-07-26T08:09:34.728Z,25.1
2018-07-26T08:10:23.681Z,25.1
2018-07-26T08:11:15.156Z,25.1
2018-07-26T08:12:05.213Z,25.1
2018-07-26T08:12:54.842Z,25.1
2018-07-26T08:13:44.035Z,25.1
2018-07-26T08:14:34.004Z,25.1
2018-07-26T08:15:25.148Z,25.1
2018-07-26T08:16:15.841Z,25.1
2018-07-26T08:17:05.152Z,25.1
2018-07-26T08:17:55.132Z,25.1
2018-07-26T08:18:45.216Z,25.1
2018-07-26T08:19:34.971Z,25.1
2018-07-26T08:20:26.113Z,25.1
2018-07-26T08:21:15.266Z,25.2
2018-07-26T08:22:04.101Z,25.1
2018-07-26T08:22:55.529Z,25.1
2018-07-26T08:23:45.016Z,25.1
2018-07-26T08:24:35.362Z,25.1
2018-07-26T08:25:25.416Z,25.2
2018-07-26T08:26:15.490Z,25.2
2018-07-26T08:27:05.289Z,25.1
2018-07-26T08:27:55.897Z,25.2
2018-07-26T08:28:46.540Z,25.2
2018-07-26T08:29:36.680Z,25.2
2018-07-26T08:30:26.104Z,25.2
2018-07-26T08:31:16.730Z,25.2
2018-07-26T08:32:05.932Z,25.2
2018-07-26T08:32:56.357Z,25.2
2018-07-26T08:33:46.605Z,25.2
2018-07-26T08:34:35.640Z,25.2
2018-07-26T08:35:26.218Z,25.1
2018-07-26T08:36:16.874Z,25.1
2018-07-26T08:37:06.624Z,25.2
2018-07-26T08:37:57.244Z,25.2
2018-07-26T08:38:46.684Z,25.2
2018-07-26T08:39:37.083Z,25.2
2018-07-26T08:40:27.633Z,25.2
2018-07-26T08:41:18.785Z,25.2
2018-07-26T08:42:06.496Z,25.2
2018-07-26T08:42:57.244Z,25.2
2018-07-26T08:43:49.317Z,25.2
2018-07-26T08:44:37.713Z,25.2
2018-07-26T08:45:27.769Z,25.2
2018-07-26T08:46:18.098Z,25.2
2018-07-26T08:47:08.112Z,25.2
2018-07-26T08:47:57.180Z,25.2
2018-07-26T08:48:47.757Z,25.2
2018-07-26T08:49:38.132Z,25.2
2018-07-26T08:50:28.100Z,25.2
2018-07-26T08:51:17.162Z,25.2
2018-07-26T08:52:08.855Z,25.2
2018-07-26T08:52:58.662Z,25.2
2018-07-26T08:53:47.802Z,25.2
2018-07-26T08:54:37.985Z,25.2
2018-07-26T08:55:27.055Z,25.2
2018-07-26T08:56:17.833Z,25.3
2018-07-26T08:57:08.653Z,25.2
2018-07-26T08:57:58.724Z,25.2
2018-07-26T08:58:48.017Z,25.2
2018-07-26T08:59:38.860Z,25.3
2018-07-26T09:00:27.254Z,25.3
2018-07-26T09:01:20.057Z,25.2
2018-07-26T09:02:07.836Z,25.2
2018-07-26T09:02:58.329Z,25.3
2018-07-26T09:03:48.961Z,25.3
2018-07-26T09:04:38.741Z,25.3
2018-07-26T09:05:29.068Z,25.3
2018-07-26T09:06:19.444Z,25.2
2018-07-26T09:07:08.767Z,25.2
2018-07-26T09:07:58.710Z,25.3
2018-07-26T09:08:48.597Z,25.3
2018-07-26T09:09:39.412Z,25.2
2018-07-26T09:10:29.446Z,25.2
2018-07-26T09:11:18.817Z,25.3
2018-07-26T09:12:08.782Z,25.3
2018-07-26T09:12:59.005Z,25.2
2018-07-26T09:13:50.079Z,25.2
2018-07-26T09:14:40.363Z,25.2
2018-07-26T09:15:29.833Z,25.2
2018-07-26T09:16:19.947Z,25.3
2018-07-26T09:17:10.505Z,25.2
2018-07-26T09:17:58.525Z,25.3
2018-07-26T09:18:50.646Z,25.3
2018-07-26T09:19:41.211Z,25.2
2018-07-26T09:20:30.704Z,25.2
2018-07-26T09:21:20.335Z,25.3
2018-07-26T09:22:10.610Z,25.3
2018-07-26T09:23:00.712Z,25.3
2018-07-26T09:23:50.988Z,25.3
2018-07-26T09:24:41.931Z,25.3
2018-07-26T09:25:30.863Z,25.3
2018-07-26T09:26:22.541Z,25.3
2018-07-26T09:27:10.963Z,25.3
2018-07-26T09:28:00.292Z,25.3
2018-07-26T09:28:51.253Z,25.3
2018-07-26T09:29:40.915Z,25.3
2018-07-26T09:30:31.520Z,25.3
2018-07-26T09:31:21.337Z,25.3
2018-07-26T09:32:10.859Z,25.3
2018-07-26T09:33:01.992Z,25.3
2018-07-26T09:33:51.583Z,25.3
2018-07-26T09:34:41.428Z,25.3
2018-07-26T09:35:32.681Z,25.3
2018-07-26T09:36:21.470Z,25.3
2018-07-26T09:37:11.524Z,25.3
2018-07-26T09:38:01.320Z,25.3
2018-07-26T09:38:51.379Z,25.3
2018-07-26T09:39:41.721Z,25.3
2018-07-26T09:40:31.526Z,25.3
2018-07-26T09:41:22.899Z,25.3
2018-07-26T09:42:11.349Z,25.3
2018-07-26T09:43:01.705Z,25.3
2018-07-26T09:43:51.779Z,25.3
2018-07-26T09:44:42.395Z,25.2
2018-07-26T09:45:31.338Z,25.3
2018-07-26T09:46:21.949Z,25.3
2018-07-26T09:47:12.324Z,25.3
2018-07-26T09:48:02.069Z,25.3
2018-07-26T09:48:52.193Z,25.3
2018-07-26T09:49:42.208Z,25.3
2018-07-26T09:50:32.292Z,25.3
2018-07-26T09:51:22.623Z,25.3
2018-07-26T09:52:13.200Z,25.3
2018-07-26T09:53:02.976Z,25.3
2018-07-26T09:53:53.054Z,25.3
2018-07-26T09:54:42.279Z,25.3
2018-07-26T09:55:32.924Z,25.3
2018-07-26T09:56:23.541Z,25.3
2018-07-26T09:57:12.562Z,25.3
2018-07-26T09:58:02.933Z,25.3
2018-07-26T09:58:52.364Z,25.3
2018-07-26T09:59:43.376Z,25.3
2018-07-26T10:00:33.871Z,25.3
2018-07-26T10:01:22.888Z,25.3
2018-07-26T10:02:13.926Z,25.3
2018-07-26T10:03:03.808Z,25.3
2018-07-26T10:03:53.563Z,25.3
2018-07-26T10:04:42.847Z,25.3
2018-07-26T10:05:34.240Z,25.3
2018-07-26T10:06:23.697Z,25.3
2018-07-26T10:07:14.080Z,25.3
2018-07-26T10:08:03.324Z,25.3
2018-07-26T10:08:53.917Z,25.3
2018-07-26T10:09:44.635Z,25.3
2018-07-26T10:10:33.855Z,25.3
2018-07-26T10:11:23.899Z,25.3
2018-07-26T10:12:13.684Z,25.3
2018-07-26T10:13:04.612Z,25.3
2018-07-26T10:13:54.473Z,25.3
2018-07-26T10:14:43.929Z,25.3
2018-07-26T10:15:34.779Z,25.3
2018-07-26T10:16:25.092Z,25.3
2018-07-26T10:17:15.219Z,25.3
2018-07-26T10:18:04.186Z,25.3
2018-07-26T10:18:54.736Z,25.3
2018-07-26T10:19:44.920Z,25.3
2018-07-26T10:20:34.348Z,25.3
2018-07-26T10:21:24.781Z,25.3
2018-07-26T10:22:15.678Z,25.3
2018-07-26T10:23:04.565Z,25.3
2018-07-26T10:23:54.952Z,25.3
2018-07-26T10:24:45.522Z,25.3
2018-07-26T10:25:35.277Z,25.3
2018-07-26T10:26:24.817Z,25.3
2018-07-26T10:27:15.133Z,25.3
2018-07-26T10:28:05.447Z,25.3
2018-07-26T10:28:54.484Z,25.3
2018-07-26T10:29:45.309Z,25.3
2018-07-26T10:30:35.932Z,25.3
2018-07-26T10:31:25.496Z,25.3
2018-07-26T10:32:15.781Z,25.3
2018-07-26T10:33:05.905Z,25.3
2018-07-26T10:33:55.893Z,25.3
2018-07-26T10:34:46.242Z,25.3
2018-07-26T10:35:36.022Z,25.3
2018-07-26T10:36:25.929Z,25.3
2018-07-26T10:37:16.423Z,25.3
2018-07-26T10:38:06.541Z,25.3
2018-07-26T10:38:56.406Z,25.3
2018-07-26T10:39:46.355Z,25.3
2018-07-26T10:40:36.716Z,25.3
2018-07-26T10:41:26.347Z,25.3
2018-07-26T10:42:16.807Z,25.3
2018-07-26T10:43:06.627Z,25.3
2018-07-26T10:43:56.370Z,25.3
2018-07-26T10:44:47.548Z,25.3
2018-07-26T10:45:36.868Z,25.3
2018-07-26T10:46:26.611Z,25.3
2018-07-26T10:47:16.916Z,25.3
2018-07-26T10:48:06.544Z,25.3
2018-07-26T10:48:57.697Z,25.3
2018-07-26T10:49:46.985Z,25.3
2018-07-26T10:50:36.723Z,25.3
2018-07-26T10:51:25.700Z,25.3
2018-07-26T10:52:17.383Z,25.3
2018-07-26T10:53:06.876Z,25.3
2018-07-26T10:53:56.366Z,25.3
2018-07-26T10:54:47.293Z,25.3
2018-07-26T10:55:37.608Z,25.3
2018-07-26T10:56:27.150Z,25.4
2018-07-26T10:57:17.755Z,25.3
2018-07-26T10:58:06.425Z,25.3
2018-07-26T10:58:57.626Z,25.3
2018-07-26T10:59:47.092Z,25.3
2018-07-26T11:00:36.974Z,25.3
2018-07-26T11:01:28.143Z,25.3
2018-07-26T11:02:17.628Z,25.3
2018-07-26T11:03:08.462Z,25.3
2018-07-26T11:03:58.853Z,25.3
2018-07-26T11:04:48.863Z,25.3
2018-07-26T11:05:37.772Z,25.3
2018-07-26T11:06:27.638Z,25.3
2018-07-26T11:07:18.560Z,25.3